Valle de Cerro Gordo, Puerto Rico
Current Conditions -  °F | °C
As of 3:56 PM on Friday 21 Nov 2014 (Local Time) from TJSJ Reporting Station
Scattered Clouds Scattered Clouds  
Wind Chill: 84°   Ceiling: Unl
Heat Index: 91°   Visibility: 10mi
Dew Point: 74°   Wind: 15mph
Humidity: 72%   Direction: 50°NE
Pressure: 29.96"   Gusts: 21mph
Location:  18.1783°N, 66.1111°W
Report Text: TJSJ 211956Z 05013G18KT 10SM SCT030 SCT060 29/23 A2996 RMK AO2 SLP143 VCSH SW T02890233
Loading
Personal Weather Stations






























Interactive Weather Map New forecast layout! Learn more

10-Day Weather Forecast

Advertisements
Track Severe Weather on mobile